createdAt,value
2022-09-20T00:01:30.086Z,14.34
2022-09-20T00:04:01.267Z,14.32
2022-09-20T00:06:34.258Z,14.18
2022-09-20T00:09:04.018Z,14.24
2022-09-20T00:11:34.810Z,14.26
2022-09-20T00:14:06.589Z,14.26
2022-09-20T00:16:38.311Z,14.29
2022-09-20T00:19:06.785Z,14.17
2022-09-20T00:21:36.507Z,14.19
2022-09-20T00:24:05.958Z,14.11
2022-09-20T00:26:36.856Z,14.19
2022-09-20T00:29:06.777Z,14.15
2022-09-20T00:31:34.534Z,14.09
2022-09-20T00:34:20.894Z,13.99
2022-09-20T00:36:48.082Z,13.98
2022-09-20T00:39:16.979Z,14.11
2022-09-20T00:41:44.498Z,14.18
2022-09-20T00:44:57.933Z,14.11
2022-09-20T00:47:27.083Z,14.12
2022-09-20T00:50:36.315Z,14.07
2022-09-20T00:53:28.542Z,14.04
2022-09-20T00:55:58.864Z,13.92
2022-09-20T00:58:29.183Z,13.82
2022-09-20T01:00:58.286Z,13.90
2022-09-20T01:03:31.546Z,13.78
2022-09-20T01:06:02.822Z,13.79
2022-09-20T01:08:31.818Z,13.74
2022-09-20T01:11:03.690Z,13.67
2022-09-20T01:13:33.788Z,13.68
2022-09-20T01:16:11.472Z,13.66
2022-09-20T01:18:43.217Z,13.67
2022-09-20T01:21:11.307Z,13.58
2022-09-20T01:24:18.705Z,13.52
2022-09-20T01:27:10.646Z,13.47
2022-09-20T01:29:48.491Z,13.47
2022-09-20T01:32:23.800Z,13.37
2022-09-20T01:35:03.799Z,13.36
2022-09-20T01:38:05.335Z,13.28
2022-09-20T01:41:06.643Z,13.24
2022-09-20T01:43:52.241Z,13.25
2022-09-20T01:46:31.803Z,13.23
2022-09-20T01:49:44.344Z,13.14
2022-09-20T01:52:49.255Z,13.10
2022-09-20T01:55:31.652Z,13.01
2022-09-20T01:58:32.208Z,13.00
2022-09-20T02:01:42.968Z,12.91
2022-09-20T02:04:42.063Z,12.94
2022-09-20T02:07:51.193Z,12.87
2022-09-20T02:10:21.571Z,12.87
2022-09-20T02:13:06.807Z,12.87
2022-09-20T02:15:41.347Z,12.81
2022-09-20T02:18:46.050Z,12.74
2022-09-20T02:21:25.567Z,12.73
2022-09-20T02:24:23.518Z,12.71
2022-09-20T02:27:03.846Z,12.74
2022-09-20T02:29:34.481Z,12.73
2022-09-20T02:32:16.563Z,12.68
2022-09-20T02:35:10.864Z,12.58
2022-09-20T02:38:11.714Z,12.60
2022-09-20T02:40:54.343Z,12.57
2022-09-20T02:44:18.641Z,12.62
2022-09-20T02:47:01.963Z,12.59
2022-09-20T02:49:48.782Z,12.55
2022-09-20T02:52:57.744Z,12.49
2022-09-20T02:55:48.273Z,12.44
2022-09-20T02:58:51.636Z,12.39
2022-09-20T03:01:25.135Z,12.36
2022-09-20T03:04:20.765Z,12.36
2022-09-20T03:07:09.927Z,12.34
2022-09-20T03:09:55.141Z,12.25
2022-09-20T03:12:47.411Z,12.25
2022-09-20T03:15:32.345Z,12.22
2022-09-20T03:18:07.479Z,12.17
2022-09-20T03:21:01.916Z,12.17
2022-09-20T03:24:03.280Z,12.06
2022-09-20T03:26:51.751Z,12.06
2022-09-20T03:29:37.543Z,12.02
2022-09-20T03:32:19.968Z,12.00
2022-09-20T03:35:02.657Z,11.99
2022-09-20T03:38:03.252Z,11.97
2022-09-20T03:40:46.377Z,12.02
2022-09-20T03:43:22.866Z,12.00
2022-09-20T03:46:17.703Z,11.99
2022-09-20T03:49:06.527Z,11.94
2022-09-20T03:52:00.980Z,11.90
2022-09-20T03:54:31.281Z,11.79
2022-09-20T03:57:40.589Z,11.70
2022-09-20T04:00:53.735Z,11.61
2022-09-20T04:03:58.666Z,11.62
2022-09-20T04:06:32.664Z,11.69
2022-09-20T04:09:33.911Z,11.73
2022-09-20T04:12:29.952Z,11.71
2022-09-20T04:15:12.867Z,11.67
2022-09-20T04:18:06.794Z,11.64
2022-09-20T04:20:40.261Z,11.65
2022-09-20T04:23:44.923Z,11.59
2022-09-20T04:26:30.930Z,11.60
2022-09-20T04:29:25.084Z,11.61
2022-09-20T04:32:19.823Z,11.58
2022-09-20T04:35:16.025Z,11.53
2022-09-20T04:37:45.184Z,11.57
2022-09-20T04:41:09.627Z,11.39
2022-09-20T04:44:13.597Z,11.53
2022-09-20T04:47:19.282Z,11.55
2022-09-20T04:50:11.679Z,11.57
2022-09-20T04:53:12.435Z,11.65
2022-09-20T04:55:52.227Z,11.62
2022-09-20T04:58:27.732Z,11.66
2022-09-20T05:01:07.305Z,11.69
2022-09-20T05:03:59.296Z,11.74
2022-09-20T05:06:51.437Z,11.75
2022-09-20T05:09:42.372Z,11.79
2022-09-20T05:12:25.112Z,11.82
2022-09-20T05:15:07.134Z,11.89
2022-09-20T05:18:20.007Z,11.91
2022-09-20T05:20:49.672Z,11.90
2022-09-20T05:23:48.563Z,11.91
2022-09-20T05:26:29.708Z,11.86
2022-09-20T05:29:01.837Z,11.87
2022-09-20T05:31:52.184Z,11.89
2022-09-20T05:34:44.349Z,11.93
2022-09-20T05:37:30.815Z,11.97
2022-09-20T05:40:29.350Z,12.06
2022-09-20T05:43:11.346Z,12.05
2022-09-20T05:46:22.693Z,12.17
2022-09-20T05:48:59.580Z,12.28
2022-09-20T05:51:35.745Z,12.38
2022-09-20T05:54:26.328Z,12.41
2022-09-20T05:57:26.129Z,12.40
2022-09-20T06:00:03.062Z,12.39
2022-09-20T06:02:55.118Z,12.37
2022-09-20T06:05:41.290Z,12.35
2022-09-20T06:08:08.872Z,12.39
2022-09-20T06:11:26.890Z,12.35
2022-09-20T06:14:09.783Z,12.28
2022-09-20T06:17:11.098Z,12.28
2022-09-20T06:19:46.266Z,12.25
2022-09-20T06:22:32.567Z,12.21
2022-09-20T06:25:11.332Z,12.32
2022-09-20T06:27:45.869Z,12.35
2022-09-20T06:30:20.555Z,12.39
2022-09-20T06:32:59.028Z,12.45
2022-09-20T06:35:35.917Z,12.46
2022-09-20T06:38:55.293Z,12.46
2022-09-20T06:41:28.374Z,12.50
2022-09-20T06:43:59.676Z,12.57
2022-09-20T06:46:33.500Z,12.67
2022-09-20T06:49:01.562Z,12.70
2022-09-20T06:51:34.986Z,12.80
2022-09-20T06:54:03.811Z,12.81
2022-09-20T06:56:37.145Z,12.96
2022-09-20T06:59:08.655Z,13.09
2022-09-20T07:01:37.299Z,13.25
2022-09-20T07:04:06.357Z,13.14
2022-09-20T07:06:34.234Z,13.25
2022-09-20T07:09:01.551Z,13.31
2022-09-20T07:11:28.860Z,13.30
2022-09-20T07:13:58.310Z,13.44
2022-09-20T07:16:26.545Z,13.39
2022-09-20T07:18:54.200Z,13.54
2022-09-20T07:21:22.273Z,13.64
2022-09-20T07:23:51.463Z,13.69
2022-09-20T07:26:22.856Z,13.60
2022-09-20T07:28:50.615Z,13.84
2022-09-20T07:31:20.086Z,13.96
2022-09-20T07:33:48.153Z,14.10
2022-09-20T07:36:16.945Z,14.23
2022-09-20T07:38:51.276Z,14.20
2022-09-20T07:41:20.253Z,14.29
2022-09-20T07:43:48.301Z,14.35
2022-09-20T07:46:15.687Z,14.34
2022-09-20T07:48:43.309Z,13.99
2022-09-20T07:51:13.660Z,14.02
2022-09-20T07:53:41.862Z,14.07
2022-09-20T07:56:18.390Z,14.14
2022-09-20T07:58:49.944Z,14.29
2022-09-20T08:01:21.365Z,14.41
2022-09-20T08:03:49.285Z,14.54
2022-09-20T08:06:18.497Z,14.70
2022-09-20T08:08:46.397Z,14.84
2022-09-20T08:11:17.625Z,15.03
2022-09-20T08:16:41.068Z,15.51
2022-09-20T08:19:09.464Z,15.71
2022-09-20T08:21:39.143Z,15.82
2022-09-20T08:24:09.411Z,15.90
2022-09-20T08:26:37.480Z,15.87
2022-09-20T08:29:06.004Z,15.98
2022-09-20T08:31:37.241Z,15.92
2022-09-20T08:34:07.083Z,15.84
2022-09-20T08:36:37.362Z,15.82
2022-09-20T08:42:02.301Z,15.99
2022-09-20T08:44:35.674Z,16.20
2022-09-20T08:47:18.454Z,16.35
2022-09-20T08:49:46.372Z,16.57
2022-09-20T08:52:23.414Z,16.43
2022-09-20T08:54:50.883Z,16.27
2022-09-20T08:57:21.080Z,16.36
2022-09-20T08:59:50.464Z,16.37
2022-09-20T09:02:20.599Z,16.48
2022-09-20T09:04:51.666Z,16.68
2022-09-20T09:07:21.888Z,16.70
2022-09-20T09:09:53.222Z,16.68
2022-09-20T09:12:30.898Z,16.24
2022-09-20T09:15:04.081Z,16.21
2022-09-20T09:17:31.999Z,16.34
2022-09-20T09:20:18.035Z,16.64
2022-09-20T09:22:46.272Z,16.83
2022-09-20T09:25:49.401Z,16.69
2022-09-20T09:28:17.718Z,16.74
2022-09-20T09:30:47.648Z,16.83
2022-09-20T09:33:36.072Z,16.93
2022-09-20T09:36:14.916Z,17.09
2022-09-20T09:38:46.201Z,17.46
2022-09-20T09:41:26.301Z,17.51
2022-09-20T09:44:02.370Z,17.29
2022-09-20T09:46:35.547Z,17.03
2022-09-20T09:49:16.971Z,16.72
2022-09-20T09:52:15.101Z,16.63
2022-09-20T09:54:52.233Z,17.00
2022-09-20T09:57:49.138Z,16.93
2022-09-20T10:00:27.368Z,16.88
2022-09-20T10:03:24.459Z,16.85
2022-09-20T10:06:04.740Z,16.82
2022-09-20T10:08:51.574Z,16.78
2022-09-20T10:11:38.269Z,16.99
2022-09-20T10:14:18.034Z,17.29
2022-09-20T10:17:00.857Z,17.52
2022-09-20T10:19:34.754Z,17.67
2022-09-20T10:22:18.496Z,17.62
2022-09-20T10:24:55.430Z,17.38
2022-09-20T10:27:28.694Z,17.55
2022-09-20T10:30:05.516Z,17.56
2022-09-20T10:32:50.082Z,17.61
2022-09-20T10:35:49.961Z,17.66
2022-09-20T10:38:43.914Z,17.94
2022-09-20T10:41:35.399Z,18.01
2022-09-20T10:44:42.292Z,18.15
2022-09-20T10:47:22.582Z,18.13
2022-09-20T10:50:01.465Z,18.17
2022-09-20T10:52:43.871Z,18.29
2022-09-20T10:55:35.085Z,17.98
2022-09-20T10:58:24.841Z,17.55
2022-09-20T11:01:07.344Z,17.53
2022-09-20T11:03:41.481Z,17.75
2022-09-20T11:06:22.058Z,18.01
2022-09-20T11:08:57.189Z,17.98
2022-09-20T11:11:35.245Z,17.98
2022-09-20T11:14:12.604Z,18.27
2022-09-20T11:17:04.035Z,18.27
2022-09-20T11:19:37.646Z,18.29
2022-09-20T11:22:13.362Z,17.82
2022-09-20T11:25:21.673Z,17.54
2022-09-20T11:27:59.713Z,17.48
2022-09-20T11:30:31.137Z,17.85
2022-09-20T11:33:19.295Z,18.26
2022-09-20T11:35:51.298Z,18.54
2022-09-20T11:38:53.408Z,18.74
2022-09-20T11:41:28.844Z,18.76
2022-09-20T11:44:04.771Z,18.73
2022-09-20T11:46:39.549Z,18.75
2022-09-20T11:49:30.402Z,18.56
2022-09-20T11:52:03.973Z,18.74
2022-09-20T11:54:56.216Z,18.98
2022-09-20T11:57:25.115Z,19.03
2022-09-20T11:59:58.337Z,19.21
2022-09-20T12:02:51.833Z,19.36
2022-09-20T12:05:38.900Z,19.39
2022-09-20T12:08:24.923Z,18.95
2022-09-20T12:11:09.164Z,18.74
2022-09-20T12:13:54.143Z,18.88
2022-09-20T12:16:49.586Z,19.03
2022-09-20T12:19:34.281Z,19.35
2022-09-20T12:22:02.180Z,19.61
2022-09-20T12:24:32.576Z,19.62
2022-09-20T12:27:06.769Z,19.38
2022-09-20T12:29:34.458Z,19.38
2022-09-20T12:32:23.111Z,19.45
2022-09-20T12:34:54.136Z,19.55
2022-09-20T12:37:24.025Z,19.58
2022-09-20T12:39:55.699Z,19.64
2022-09-20T12:42:33.506Z,19.45
2022-09-20T12:45:07.687Z,19.46
2022-09-20T12:47:37.688Z,19.37
2022-09-20T12:50:34.345Z,19.28
2022-09-20T12:53:06.821Z,19.01
2022-09-20T12:55:57.293Z,18.77
2022-09-20T12:58:55.551Z,18.47
2022-09-20T13:01:23.772Z,18.35
2022-09-20T13:03:51.916Z,18.21
2022-09-20T13:06:19.722Z,18.36
2022-09-20T13:09:02.975Z,18.32
2022-09-20T13:11:45.909Z,18.41
2022-09-20T13:14:31.398Z,18.63
2022-09-20T13:17:19.525Z,18.78
2022-09-20T13:19:51.711Z,18.78
2022-09-20T13:22:33.192Z,18.88
2022-09-20T13:25:04.317Z,18.92
2022-09-20T13:27:34.915Z,18.90
2022-09-20T13:30:18.225Z,18.88
2022-09-20T13:32:47.775Z,18.96
2022-09-20T13:35:25.263Z,19.06
2022-09-20T13:37:57.059Z,18.80
2022-09-20T13:40:42.558Z,18.65
2022-09-20T13:43:41.265Z,18.54
2022-09-20T13:46:13.872Z,18.51
2022-09-20T13:48:42.772Z,18.36
2022-09-20T13:51:40.053Z,18.37
2022-09-20T13:54:28.082Z,18.21
2022-09-20T13:57:12.255Z,18.11
2022-09-20T13:59:45.729Z,18.05
2022-09-20T14:02:33.553Z,17.99
2022-09-20T14:05:04.405Z,17.95
2022-09-20T14:07:33.877Z,17.99
2022-09-20T14:10:01.975Z,18.14
2022-09-20T14:12:31.923Z,18.12
2022-09-20T14:14:59.887Z,18.08
2022-09-20T14:17:34.403Z,18.04
2022-09-20T14:20:03.134Z,18.20
2022-09-20T14:22:30.748Z,18.32
2022-09-20T14:25:02.647Z,18.56
2022-09-20T14:27:31.740Z,18.70
2022-09-20T14:30:00.017Z,18.77
2022-09-20T14:32:59.042Z,19.00
2022-09-20T14:35:27.296Z,19.01
2022-09-20T14:38:09.388Z,18.88
2022-09-20T14:40:46.454Z,18.99
2022-09-20T14:43:34.870Z,19.00
2022-09-20T14:46:17.773Z,19.14
2022-09-20T14:48:46.182Z,19.16
2022-09-20T14:51:25.670Z,19.14
2022-09-20T14:54:13.930Z,18.81
2022-09-20T14:56:49.444Z,18.78
2022-09-20T14:59:25.064Z,18.79
2022-09-20T15:02:04.209Z,18.70
2022-09-20T15:04:33.431Z,18.57
2022-09-20T15:07:04.160Z,18.27
2022-09-20T15:09:33.871Z,18.17
2022-09-20T15:12:07.900Z,18.10
2022-09-20T15:14:38.193Z,18.11
2022-09-20T15:17:06.283Z,17.92
2022-09-20T15:19:34.610Z,17.90
2022-09-20T15:22:02.424Z,17.90
2022-09-20T15:24:30.051Z,17.92
2022-09-20T15:26:57.991Z,17.99
2022-09-20T15:29:26.166Z,17.85
2022-09-20T15:31:54.083Z,17.88
2022-09-20T15:34:24.923Z,17.83
2022-09-20T15:36:54.369Z,17.65
2022-09-20T15:39:22.554Z,17.75
2022-09-20T15:41:53.984Z,17.78
2022-09-20T15:44:21.651Z,17.67
2022-09-20T15:46:51.809Z,17.71
2022-09-20T15:49:19.535Z,17.61
2022-09-20T15:51:48.387Z,17.58
2022-09-20T15:54:16.073Z,17.53
2022-09-20T15:56:44.248Z,17.38
2022-09-20T15:59:13.511Z,17.40
2022-09-20T16:01:43.501Z,17.38
2022-09-20T16:04:17.819Z,17.34
2022-09-20T16:06:48.103Z,17.29
2022-09-20T16:09:17.592Z,17.20
2022-09-20T16:11:45.207Z,17.17
2022-09-20T16:14:13.487Z,17.11
2022-09-20T16:16:41.196Z,16.98
2022-09-20T16:19:17.736Z,16.91
2022-09-20T16:21:55.197Z,16.85
2022-09-20T16:24:30.590Z,16.73
2022-09-20T16:27:01.667Z,16.63
2022-09-20T16:29:30.185Z,16.51
2022-09-20T16:31:58.971Z,16.38
2022-09-20T16:34:31.487Z,16.32
2022-09-20T16:37:08.906Z,16.23
2022-09-20T16:39:36.226Z,16.24
2022-09-20T16:42:06.094Z,16.17
2022-09-20T16:44:38.890Z,16.06
2022-09-20T16:47:08.971Z,15.94
2022-09-20T16:49:37.006Z,15.79
2022-09-20T16:52:05.692Z,15.85
2022-09-20T16:54:33.929Z,15.83
2022-09-20T16:57:01.564Z,15.77
2022-09-20T16:59:29.113Z,15.68
2022-09-20T17:01:56.441Z,15.61
2022-09-20T17:04:23.684Z,15.54
2022-09-20T17:06:51.576Z,15.44
2022-09-20T17:09:19.037Z,15.36
2022-09-20T17:11:49.735Z,15.27
2022-09-20T17:14:19.227Z,15.19
2022-09-20T17:16:48.043Z,15.21
2022-09-20T17:19:18.577Z,15.11
2022-09-20T17:21:50.640Z,15.04
2022-09-20T17:24:20.449Z,14.93
2022-09-20T17:26:48.977Z,14.90
2022-09-20T17:29:18.613Z,14.89
2022-09-20T17:31:53.984Z,14.84
2022-09-20T17:34:23.127Z,14.78
2022-09-20T17:36:51.050Z,14.73
2022-09-20T17:39:18.971Z,14.68
2022-09-20T17:41:48.443Z,14.57
2022-09-20T17:44:16.618Z,14.52
2022-09-20T17:46:47.021Z,14.43
2022-09-20T17:49:16.816Z,14.38
2022-09-20T17:51:47.012Z,14.35
2022-09-20T17:54:15.538Z,14.30
2022-09-20T17:56:51.355Z,14.25
2022-09-20T17:59:20.370Z,14.25
2022-09-20T18:01:50.230Z,14.19
2022-09-20T18:04:18.429Z,14.10
2022-09-20T18:06:47.936Z,14.10
2022-09-20T18:09:17.547Z,14.09
2022-09-20T18:11:51.029Z,14.03
2022-09-20T18:14:21.077Z,13.98
2022-09-20T18:16:51.541Z,13.99
2022-09-20T18:19:19.039Z,13.93
2022-09-20T18:21:46.525Z,13.86
2022-09-20T18:24:13.908Z,13.82
2022-09-20T18:26:41.439Z,13.79
2022-09-20T18:29:14.152Z,13.73
2022-09-20T18:31:50.114Z,13.69
2022-09-20T18:34:20.389Z,13.66
2022-09-20T18:36:53.233Z,13.60
2022-09-20T18:39:26.051Z,13.52
2022-09-20T18:41:54.271Z,13.48
2022-09-20T18:44:22.556Z,13.43
2022-09-20T18:46:54.640Z,13.30
2022-09-20T18:49:22.357Z,13.37
2022-09-20T18:51:49.821Z,13.28
2022-09-20T18:54:19.921Z,13.26
2022-09-20T18:56:49.741Z,13.22
2022-09-20T18:59:20.519Z,13.20
2022-09-20T19:01:51.301Z,13.29
2022-09-20T19:05:06.906Z,13.24
2022-09-20T19:07:44.700Z,13.27
2022-09-20T19:10:21.303Z,13.26
2022-09-20T19:13:16.620Z,13.23
2022-09-20T19:15:56.248Z,13.20
2022-09-20T19:18:45.372Z,13.15
2022-09-20T19:21:37.563Z,13.14
2022-09-20T19:24:23.420Z,13.13
2022-09-20T19:26:50.735Z,13.10
2022-09-20T19:29:24.962Z,13.05
2022-09-20T19:31:55.695Z,13.00
2022-09-20T19:34:25.768Z,12.90
2022-09-20T19:37:18.861Z,12.89
2022-09-20T19:40:10.507Z,12.78
2022-09-20T19:43:06.572Z,12.68
2022-09-20T19:45:47.329Z,12.65
2022-09-20T19:48:23.860Z,12.56
2022-09-20T19:50:54.710Z,12.52
2022-09-20T19:53:24.200Z,12.54
2022-09-20T19:55:59.873Z,12.52
2022-09-20T19:58:28.193Z,12.42
2022-09-20T20:00:55.923Z,12.42
2022-09-20T20:03:30.364Z,12.31
2022-09-20T20:06:09.627Z,12.27
2022-09-20T20:08:48.800Z,12.31
2022-09-20T20:11:37.802Z,12.38
2022-09-20T20:14:14.268Z,12.39
2022-09-20T20:17:01.011Z,12.40
2022-09-20T20:19:59.469Z,12.38
2022-09-20T20:23:00.134Z,12.29
2022-09-20T20:25:49.119Z,12.34
2022-09-20T20:28:16.375Z,12.22
2022-09-20T20:30:44.045Z,12.20
2022-09-20T20:33:16.797Z,12.25
2022-09-20T20:35:44.185Z,12.24
2022-09-20T20:38:13.034Z,12.26
2022-09-20T20:40:42.642Z,12.21
2022-09-20T20:43:09.924Z,12.18
2022-09-20T20:45:38.768Z,12.10
2022-09-20T20:48:06.321Z,12.13
2022-09-20T20:50:35.600Z,12.15
2022-09-20T20:53:02.750Z,12.18
2022-09-20T20:55:31.220Z,12.10
2022-09-20T20:57:59.803Z,12.13
2022-09-20T21:00:28.066Z,12.16
2022-09-20T21:03:00.127Z,12.13
2022-09-20T21:05:28.416Z,12.02
2022-09-20T21:07:56.482Z,12.05
2022-09-20T21:10:23.798Z,12.02
2022-09-20T21:12:54.883Z,11.99
2022-09-20T21:15:22.106Z,11.93
2022-09-20T21:17:53.631Z,11.86
2022-09-20T21:20:22.252Z,11.79
2022-09-20T21:22:49.575Z,11.73
2022-09-20T21:25:17.162Z,11.74
2022-09-20T21:27:44.727Z,11.74
2022-09-20T21:30:12.469Z,11.64
2022-09-20T21:32:39.708Z,11.62
2022-09-20T21:35:07.386Z,11.68
2022-09-20T21:37:34.440Z,11.59
2022-09-20T21:40:02.372Z,11.58
2022-09-20T21:42:30.644Z,11.57
2022-09-20T21:44:58.117Z,11.60
2022-09-20T21:47:25.243Z,11.58
2022-09-20T21:49:52.764Z,11.57
2022-09-20T21:52:19.830Z,11.59
2022-09-20T21:54:47.089Z,11.60
2022-09-20T21:57:14.775Z,11.54
2022-09-20T21:59:42.951Z,11.58
2022-09-20T22:02:10.541Z,11.50
2022-09-20T22:04:38.154Z,11.52
2022-09-20T22:07:05.295Z,11.47
2022-09-20T22:09:32.423Z,11.48
2022-09-20T22:12:00.310Z,11.50
2022-09-20T22:14:27.646Z,11.52
2022-09-20T22:16:55.133Z,11.54
2022-09-20T22:19:22.487Z,11.48
2022-09-20T22:21:51.554Z,11.48
2022-09-20T22:24:19.110Z,11.49
2022-09-20T22:26:51.284Z,11.42
2022-09-20T22:29:18.841Z,11.40
2022-09-20T22:31:47.681Z,11.31
2022-09-20T22:34:20.609Z,11.26
2022-09-20T22:36:48.140Z,11.18
2022-09-20T22:39:16.245Z,11.16
2022-09-20T22:41:44.621Z,11.05
2022-09-20T22:44:12.297Z,11.11
2022-09-20T22:46:40.167Z,11.10
2022-09-20T22:49:09.338Z,11.12
2022-09-20T22:51:37.638Z,10.90
2022-09-20T22:54:08.771Z,11.08
2022-09-20T22:56:36.705Z,10.98
2022-09-20T22:59:07.242Z,10.95
2022-09-20T23:01:36.580Z,10.95
2022-09-20T23:04:10.908Z,10.88
2022-09-20T23:06:43.408Z,10.95
2022-09-20T23:09:13.880Z,11.01
2022-09-20T23:11:42.813Z,10.80
2022-09-20T23:14:12.442Z,10.93
2022-09-20T23:16:40.220Z,10.96
2022-09-20T23:19:08.268Z,11.05
2022-09-20T23:21:37.116Z,10.95
2022-09-20T23:24:07.202Z,10.90
2022-09-20T23:26:36.586Z,10.88
2022-09-20T23:29:07.559Z,10.82
2022-09-20T23:31:37.102Z,10.83
2022-09-20T23:34:06.306Z,10.97
2022-09-20T23:36:36.078Z,10.98
2022-09-20T23:39:03.829Z,10.95
2022-09-20T23:41:31.460Z,11.07
2022-09-20T23:43:59.497Z,11.10
2022-09-20T23:46:28.152Z,11.06
2022-09-20T23:48:55.535Z,11.05
2022-09-20T23:51:26.437Z,10.92
2022-09-20T23:53:54.772Z,10.98
2022-09-20T23:56:28.190Z,11.04
2022-09-20T23:58:56.560Z,11.05
